Time;durP1;ratioP1;P1;durP2;ratioP2;P2;SDS_P1;SDS_P2;PMS_P1;PMS_P2;Temp;Humidity;BMP_temperature;BMP_pressure;BME280_temperature;BME280_humidity;BME280_pressure;Samples;Min_cycle;Max_cycle;Signal;HPM_P1;HPM_P2
2024/04/12 00:01:11;;;;;;;59.97;4.67;;;;;;;;;;5467562;26;20515;-69
2024/04/12 00:03:37;;;;;;;60.70;5.00;;;;;;;;;;5488918;26;20525;-69
2024/04/12 00:06:15;;;;;;;62.23;5.40;;;;;;;;;;5504123;26;20595;-69
2024/04/12 00:08:41;;;;;;;58.90;4.70;;;;;;;;;;5504285;26;21108;-70
2024/04/12 00:11:10;;;;;;;58.47;5.13;;;;;;;;;;5503446;26;20587;-69
2024/04/12 00:13:40;;;;;;;59.20;5.07;;;;;;;;;;5503318;26;20916;-69
2024/04/12 00:16:09;;;;;;;59.50;4.83;;;;;;;;;;5487745;26;20541;-70
2024/04/12 00:18:36;;;;;;;60.30;4.83;;;;;;;;;;5488133;26;20470;-70
2024/04/12 00:21:05;;;;;;;59.00;5.17;;;;;;;;;;5487553;26;20591;-69
2024/04/12 00:23:34;;;;;;;59.30;5.50;;;;;;;;;;5512835;26;21003;-69
2024/04/12 00:26:03;;;;;;;59.43;5.10;;;;;;;;;;5525140;26;20480;-70
2024/04/12 00:28:30;;;;;;;62.37;5.40;;;;;;;;;;5518632;26;20804;-69
2024/04/12 00:31:01;;;;;;;58.77;5.30;;;;;;;;;;5525367;26;20469;-69
2024/04/12 00:33:31;;;;;;;60.37;5.33;;;;;;;;;;5518106;26;20577;-69
2024/04/12 00:36:07;;;;;;;59.20;5.47;;;;;;;;;;5524981;26;20821;-70
2024/04/12 00:38:36;;;;;;;61.73;5.03;;;;;;;;;;5493098;26;20629;-70
2024/04/12 00:41:11;;;;;;;59.60;5.40;;;;;;;;;;5487440;26;20482;-70
2024/04/12 00:43:38;;;;;;;61.70;7.63;;;;;;;;;;5487434;26;21005;-70
2024/04/12 00:46:08;;;;;;;62.03;5.17;;;;;;;;;;5488122;26;20822;-69
2024/04/12 00:48:36;;;;;;;58.23;4.80;;;;;;;;;;5487751;26;20478;-70
2024/04/12 00:51:05;;;;;;;61.43;5.23;;;;;;;;;;5487439;26;20913;-69
2024/04/12 00:53:32;;;;;;;59.07;4.73;;;;;;;;;;5512014;26;20484;-70
2024/04/12 00:56:03;;;;;;;59.40;5.00;;;;;;;;;;5524701;26;20472;-68
2024/04/12 00:58:32;;;;;;;59.20;5.30;;;;;;;;;;5493539;26;20530;-70
2024/04/12 01:01:10;;;;;;;59.80;5.40;;;;;;;;;;5486836;26;21029;-70
2024/04/12 01:03:37;;;;;;;59.10;5.23;;;;;;;;;;5512926;26;20536;-70
2024/04/12 01:06:07;;;;;;;59.20;4.90;;;;;;;;;;5524651;26;20481;-69
2024/04/12 01:08:33;;;;;;;60.27;4.93;;;;;;;;;;5493089;26;20474;-69
2024/04/12 01:11:08;;;;;;;59.00;5.07;;;;;;;;;;5520277;26;20546;-70
2024/04/12 01:13:36;;;;;;;63.10;5.40;;;;;;;;;;5492318;26;20462;-70
2024/04/12 01:16:05;;;;;;;58.67;5.07;;;;;;;;;;5487685;26;20470;-69
2024/04/12 01:18:32;;;;;;;59.90;5.60;;;;;;;;;;5487661;26;20454;-69
2024/04/12 01:21:10;;;;;;;59.47;5.73;;;;;;;;;;5487340;26;20466;-69
2024/04/12 01:23:36;;;;;;;60.87;5.60;;;;;;;;;;5486595;26;20821;-70
2024/04/12 01:26:09;;;;;;;60.10;4.73;;;;;;;;;;5486185;26;20526;-69
2024/04/12 01:28:35;;;;;;;59.17;5.47;;;;;;;;;;5487246;26;20481;-70
2024/04/12 01:31:05;;;;;;;57.10;4.60;;;;;;;;;;5486725;26;20583;-69
2024/04/12 01:33:31;;;;;;;59.87;5.27;;;;;;;;;;5510902;26;20824;-69
2024/04/12 01:36:04;;;;;;;58.47;5.00;;;;;;;;;;5524178;26;20473;-69
2024/04/12 01:38:31;;;;;;;58.37;5.37;;;;;;;;;;5492434;26;20771;-70
2024/04/12 01:41:05;;;;;;;59.80;5.07;;;;;;;;;;5486851;26;20545;-68
2024/04/12 01:43:35;;;;;;;58.77;5.23;;;;;;;;;;5510674;26;20509;-70
2024/04/12 01:46:04;;;;;;;58.70;5.03;;;;;;;;;;5524137;26;20476;-69
2024/04/12 01:48:33;;;;;;;61.07;5.10;;;;;;;;;;5492547;26;20842;-70
2024/04/12 01:51:03;;;;;;;62.93;5.37;;;;;;;;;;5483749;26;20478;-69
2024/04/12 01:53:36;;;;;;;61.23;5.53;;;;;;;;;;5509824;26;20516;-69
2024/04/12 01:56:05;;;;;;;61.53;5.50;;;;;;;;;;5524233;26;20478;-70
2024/04/12 01:58:34;;;;;;;59.10;5.07;;;;;;;;;;5515960;26;20560;-69
2024/04/12 02:01:03;;;;;;;59.17;5.03;;;;;;;;;;5487251;26;20530;-69
2024/04/12 02:03:30;;;;;;;59.90;6.17;;;;;;;;;;5485900;26;20952;-69
2024/04/12 02:06:03;;;;;;;60.40;5.43;;;;;;;;;;5516953;26;20515;-70
2024/04/12 02:08:30;;;;;;;59.10;5.23;;;;;;;;;;5515960;26;20879;-69
2024/04/12 02:10:58;;;;;;;60.53;5.50;;;;;;;;;;5503791;26;20463;-69
2024/04/12 02:13:35;;;;;;;57.00;4.67;;;;;;;;;;5478120;26;20534;-70
2024/04/12 02:16:10;;;;;;;60.37;5.80;;;;;;;;;;5486910;26;20533;-69
2024/04/12 02:18:38;;;;;;;60.07;5.70;;;;;;;;;;5511492;26;20479;-69
2024/04/12 02:21:10;;;;;;;58.50;5.20;;;;;;;;;;5523016;26;20576;-69
2024/04/12 02:23:37;;;;;;;59.50;5.13;;;;;;;;;;5490080;26;20476;-70
2024/04/12 02:26:08;;;;;;;60.00;5.27;;;;;;;;;;5486162;26;20473;-70
2024/04/12 02:28:36;;;;;;;61.30;6.33;;;;;;;;;;5486036;26;20597;-70
2024/04/12 02:31:12;;;;;;;59.90;5.40;;;;;;;;;;5485769;26;20594;-70
2024/04/12 02:33:38;;;;;;;59.07;5.10;;;;;;;;;;5481900;26;20505;-68
2024/04/12 02:36:11;;;;;;;57.70;5.00;;;;;;;;;;5486390;26;20548;-70
2024/04/12 02:38:41;;;;;;;59.97;5.33;;;;;;;;;;5485341;26;20474;-70
2024/04/12 02:41:13;;;;;;;60.87;5.07;;;;;;;;;;5485419;26;20474;-70
2024/04/12 02:43:40;;;;;;;60.57;5.60;;;;;;;;;;5510848;26;20529;-70
2024/04/12 02:46:13;;;;;;;59.17;5.47;;;;;;;;;;5523004;26;20464;-69
2024/04/12 02:48:40;;;;;;;60.00;5.33;;;;;;;;;;5494131;26;20470;-70
2024/04/12 02:51:12;;;;;;;58.43;5.50;;;;;;;;;;5485375;26;21056;-70
2024/04/12 02:53:38;;;;;;;61.47;5.17;;;;;;;;;;5510296;26;20464;-70
2024/04/12 02:56:09;;;;;;;59.37;5.27;;;;;;;;;;5522100;26;20465;-69
2024/04/12 02:58:38;;;;;;;60.17;5.63;;;;;;;;;;5490369;26;21112;-69
2024/04/12 03:01:08;;;;;;;59.43;4.60;;;;;;;;;;5485212;26;21010;-69
2024/04/12 03:03:39;;;;;;;64.90;5.63;;;;;;;;;;5508559;26;20457;-69
2024/04/12 03:06:10;;;;;;;58.67;5.70;;;;;;;;;;5522741;26;20529;-69
2024/04/12 03:08:36;;;;;;;58.77;5.23;;;;;;;;;;5514043;26;20496;-70
2024/04/12 03:11:14;;;;;;;59.13;4.83;;;;;;;;;;5521896;26;20468;-69
2024/04/12 03:13:41;;;;;;;60.27;5.30;;;;;;;;;;5513641;26;20611;-70
2024/04/12 03:16:13;;;;;;;59.20;4.80;;;;;;;;;;5522349;26;20469;-70
2024/04/12 03:18:44;;;;;;;58.70;5.13;;;;;;;;;;5488687;26;20938;-70
2024/04/12 03:21:14;;;;;;;58.17;4.97;;;;;;;;;;5487569;26;20470;-70
2024/04/12 03:23:43;;;;;;;60.60;5.10;;;;;;;;;;5489001;26;20489;-70
2024/04/12 03:26:12;;;;;;;58.50;5.40;;;;;;;;;;5485594;26;20474;-69
2024/04/12 03:28:39;;;;;;;58.27;4.83;;;;;;;;;;5509615;26;20492;-70
2024/04/12 03:31:08;;;;;;;58.43;4.70;;;;;;;;;;5521641;26;20484;-69
2024/04/12 03:33:42;;;;;;;58.50;5.47;;;;;;;;;;5489607;26;20522;-70
2024/04/12 03:36:26;;;;;;;59.87;4.77;;;;;;;;;;5485174;26;21048;-70
2024/04/12 03:39:24;;;;;;;58.43;4.60;;;;;;;;;;5485357;26;20477;-70
2024/04/12 03:41:43;;;;;;;61.85;5.45;;;;;;;;;;5472094;26;20466;-70
2024/04/12 03:44:09;;;;;;;60.30;5.63;;;;;;;;;;5484735;26;20232;-69
2024/04/12 03:46:40;;;;;;;59.50;5.80;;;;;;;;;;5490981;26;20514;-69
2024/04/12 03:49:09;;;;;;;59.40;5.10;;;;;;;;;;5485417;26;20478;-70
2024/04/12 03:51:43;;;;;;;59.20;4.70;;;;;;;;;;5487623;26;20490;-69
2024/04/12 03:54:10;;;;;;;58.80;4.97;;;;;;;;;;5520785;26;20472;-69
2024/04/12 03:56:39;;;;;;;59.27;5.33;;;;;;;;;;5523691;26;20984;-70
2024/04/12 03:59:05;;;;;;;61.70;4.87;;;;;;;;;;5488438;26;20474;-70
2024/04/12 04:01:36;;;;;;;59.30;5.07;;;;;;;;;;5488027;26;21006;-69
2024/04/12 04:04:10;;;;;;;59.67;5.10;;;;;;;;;;5488094;26;20613;-69
2024/04/12 04:06:44;;;;;;;60.10;5.00;;;;;;;;;;5488087;26;20512;-70
2024/04/12 04:09:11;;;;;;;61.23;5.63;;;;;;;;;;5521053;26;20471;-70
2024/04/12 04:11:42;;;;;;;58.50;4.90;;;;;;;;;;5522896;26;20529;-70
2024/04/12 04:14:09;;;;;;;60.63;5.33;;;;;;;;;;5520024;26;20468;-69
2024/04/12 04:16:38;;;;;;;57.97;4.37;;;;;;;;;;5523612;26;20524;-69
2024/04/12 04:19:04;;;;;;;61.30;4.50;;;;;;;;;;5488054;26;20545;-69
2024/04/12 04:21:38;;;;;;;58.90;5.37;;;;;;;;;;5488241;26;20760;-70
2024/04/12 04:24:08;;;;;;;58.20;4.60;;;;;;;;;;5518535;26;20532;-69
2024/04/12 04:26:37;;;;;;;59.77;4.73;;;;;;;;;;5474079;26;21065;-69
2024/04/12 04:29:09;;;;;;;58.27;4.73;;;;;;;;;;5488120;26;20601;-69
2024/04/12 04:31:46;;;;;;;61.13;5.33;;;;;;;;;;5472795;26;20586;-69
2024/04/12 04:34:13;;;;;;;59.37;5.47;;;;;;;;;;5519526;26;20585;-68
2024/04/12 04:36:42;;;;;;;58.43;4.60;;;;;;;;;;5521776;26;20468;-70
2024/04/12 04:39:15;;;;;;;60.03;5.60;;;;;;;;;;5517455;26;20472;-70
2024/04/12 04:41:44;;;;;;;60.60;5.80;;;;;;;;;;5487538;26;20633;-69
2024/04/12 04:44:14;;;;;;;59.40;5.37;;;;;;;;;;5519363;26;20826;-70
2024/04/12 04:46:44;;;;;;;60.90;5.90;;;;;;;;;;5521873;26;20476;-69
2024/04/12 04:49:11;;;;;;;61.90;5.53;;;;;;;;;;5487778;26;20494;-70
2024/04/12 04:51:40;;;;;;;60.70;5.20;;;;;;;;;;5486484;26;20469;-70
2024/04/12 04:54:10;;;;;;;59.73;5.00;;;;;;;;;;5516827;26;20578;-70
2024/04/12 04:56:41;;;;;;;61.40;5.13;;;;;;;;;;5522339;26;20593;-70
2024/04/12 04:59:08;;;;;;;62.77;5.33;;;;;;;;;;5518850;26;20488;-70
2024/04/12 05:01:37;;;;;;;60.27;5.70;;;;;;;;;;5522176;26;21014;-71
2024/04/12 05:04:03;;;;;;;61.97;5.63;;;;;;;;;;5487413;26;20595;-70
2024/04/12 05:06:32;;;;;;;61.37;5.13;;;;;;;;;;5487573;26;20525;-70
2024/04/12 05:09:00;;;;;;;59.47;5.60;;;;;;;;;;5515847;26;20591;-70
2024/04/12 05:11:30;;;;;;;58.40;4.70;;;;;;;;;;5523554;26;20525;-70
2024/04/12 05:14:05;;;;;;;60.80;5.43;;;;;;;;;;5478063;26;20797;-71
2024/04/12 05:16:34;;;;;;;60.47;5.07;;;;;;;;;;5487366;26;20478;-71
2024/04/12 05:19:08;;;;;;;61.63;5.40;;;;;;;;;;5516287;26;20594;-71
2024/04/12 05:21:38;;;;;;;61.63;6.00;;;;;;;;;;5522341;26;20469;-71
2024/04/12 05:24:09;;;;;;;59.10;5.63;;;;;;;;;;5488167;26;20862;-71
2024/04/12 05:26:41;;;;;;;59.17;5.40;;;;;;;;;;5473042;26;21021;-71
2024/04/12 05:29:09;;;;;;;66.50;6.23;;;;;;;;;;5487567;26;20474;-71
2024/04/12 05:31:38;;;;;;;62.20;5.60;;;;;;;;;;5472290;26;20794;-69
2024/04/12 05:34:04;;;;;;;61.37;6.20;;;;;;;;;;5516562;26;20570;-69
2024/04/12 05:36:36;;;;;;;61.10;6.10;;;;;;;;;;5523214;26;20521;-69
2024/04/12 05:39:08;;;;;;;64.87;5.90;;;;;;;;;;5516066;26;21023;-70
2024/04/12 05:41:37;;;;;;;61.87;6.43;;;;;;;;;;5521616;26;20468;-69
2024/04/12 05:44:06;;;;;;;60.20;5.60;;;;;;;;;;5515964;26;21125;-68
2024/04/12 05:46:39;;;;;;;60.60;5.60;;;;;;;;;;5522723;26;20525;-69
2024/04/12 05:49:09;;;;;;;61.37;6.30;;;;;;;;;;5487073;26;20522;-69
2024/04/12 05:51:39;;;;;;;60.77;5.83;;;;;;;;;;5486712;26;20806;-70
2024/04/12 05:54:10;;;;;;;59.57;5.70;;;;;;;;;;5487037;26;20458;-69
2024/04/12 05:56:39;;;;;;;59.23;6.37;;;;;;;;;;5471923;26;20526;-69
2024/04/12 05:59:05;;;;;;;61.73;5.97;;;;;;;;;;5486696;26;20478;-69
2024/04/12 06:01:35;;;;;;;61.80;6.60;;;;;;;;;;5486832;26;20530;-69
2024/04/12 06:04:05;;;;;;;61.90;6.10;;;;;;;;;;5514554;26;20473;-69
2024/04/12 06:06:34;;;;;;;60.80;5.87;;;;;;;;;;5522814;26;20473;-68
2024/04/12 06:09:05;;;;;;;60.07;6.03;;;;;;;;;;5486815;26;20596;-69
2024/04/12 06:11:36;;;;;;;60.60;6.60;;;;;;;;;;5485999;26;20473;-69
2024/04/12 06:14:03;;;;;;;60.03;6.30;;;;;;;;;;5514752;26;21004;-69
2024/04/12 06:16:31;;;;;;;61.30;5.53;;;;;;;;;;5523695;26;20512;-68
2024/04/12 06:18:58;;;;;;;61.77;6.03;;;;;;;;;;5477036;26;20527;-70
2024/04/12 06:21:30;;;;;;;60.97;7.37;;;;;;;;;;5486468;26;20911;-69
2024/04/12 06:23:57;;;;;;;62.50;6.10;;;;;;;;;;5476018;26;20831;-69
2024/04/12 06:26:25;;;;;;;62.13;6.70;;;;;;;;;;5486694;26;20478;-69
2024/04/12 06:28:54;;;;;;;62.03;6.13;;;;;;;;;;5511944;26;20524;-70
2024/04/12 06:31:34;;;;;;;63.03;6.10;;;;;;;;;;5523065;26;20563;-70
2024/04/12 06:34:04;;;;;;;60.17;6.57;;;;;;;;;;5513934;26;20471;-69
2024/04/12 06:36:35;;;;;;;60.90;5.40;;;;;;;;;;5522729;26;21008;-70
2024/04/12 06:39:04;;;;;;;59.53;5.80;;;;;;;;;;5486629;26;20478;-70
2024/04/12 06:41:33;;;;;;;62.00;5.27;;;;;;;;;;5485773;26;20526;-70
2024/04/12 06:43:59;;;;;;;60.53;5.90;;;;;;;;;;5486161;26;20998;-70
2024/04/12 06:46:31;;;;;;;59.60;5.23;;;;;;;;;;5486143;26;20588;-70
2024/04/12 06:49:07;;;;;;;60.07;5.83;;;;;;;;;;5476214;26;20551;-70
2024/04/12 06:52:02;;;;;;;58.60;5.77;;;;;;;;;;5485226;26;20489;-69
2024/04/12 06:54:25;;;;;;;59.00;5.70;;;;;;;;;;5519306;26;20683;-70
2024/04/12 06:56:55;;;;;;;58.07;5.00;;;;;;;;;;5516993;26;20474;-68
2024/04/12 06:59:26;;;;;;;63.20;5.73;;;;;;;;;;5518568;26;20484;-70
2024/04/12 07:01:55;;;;;;;58.80;5.43;;;;;;;;;;5515980;26;20534;-70
2024/04/12 07:04:21;;;;;;;59.43;5.90;;;;;;;;;;5517938;26;20504;-70
2024/04/12 07:06:56;;;;;;;58.47;5.10;;;;;;;;;;5518510;26;20585;-70
2024/04/12 07:09:22;;;;;;;58.40;5.50;;;;;;;;;;5519232;26;20472;-70
2024/04/12 07:11:52;;;;;;;59.53;5.60;;;;;;;;;;5516751;26;20490;-70
2024/04/12 07:14:22;;;;;;;59.20;5.67;;;;;;;;;;5517224;26;20527;-70
2024/04/12 07:16:51;;;;;;;58.50;5.13;;;;;;;;;;5517380;26;21055;-70
2024/04/12 07:19:18;;;;;;;59.70;5.37;;;;;;;;;;5516822;26;20577;-70
2024/04/12 07:21:54;;;;;;;60.37;5.63;;;;;;;;;;5517619;26;20578;-70
2024/04/12 07:24:22;;;;;;;60.57;5.67;;;;;;;;;;5485721;26;21061;-69
2024/04/12 07:26:54;;;;;;;59.57;5.60;;;;;;;;;;5489064;26;20465;-70
2024/04/12 07:29:21;;;;;;;61.17;6.23;;;;;;;;;;5489348;26;20528;-70
2024/04/12 07:31:53;;;;;;;59.53;5.60;;;;;;;;;;5488351;26;20523;-70
2024/04/12 07:34:20;;;;;;;59.73;5.90;;;;;;;;;;5520584;26;20461;-69
2024/04/12 07:36:52;;;;;;;60.20;5.10;;;;;;;;;;5521200;26;20524;-69
2024/04/12 07:39:18;;;;;;;59.50;5.53;;;;;;;;;;5489096;26;20474;-69
2024/04/12 07:41:50;;;;;;;62.10;5.30;;;;;;;;;;5488058;26;20477;-69
2024/04/12 07:44:16;;;;;;;60.33;6.40;;;;;;;;;;5519545;26;20938;-69
2024/04/12 07:46:49;;;;;;;62.50;5.47;;;;;;;;;;5522124;26;20558;-69
2024/04/12 07:49:15;;;;;;;59.30;5.00;;;;;;;;;;5519334;26;20472;-69
2024/04/12 07:51:45;;;;;;;61.23;5.23;;;;;;;;;;5521624;26;20891;-69
2024/04/12 07:54:11;;;;;;;64.63;5.27;;;;;;;;;;5517928;26;20837;-69
2024/04/12 07:56:43;;;;;;;58.33;4.60;;;;;;;;;;5523123;26;20593;-71
2024/04/12 07:59:17;;;;;;;60.80;5.70;;;;;;;;;;5489084;26;20535;-70
2024/04/12 08:01:47;;;;;;;61.53;5.10;;;;;;;;;;5488415;26;20499;-70
2024/04/12 08:04:22;;;;;;;58.10;4.93;;;;;;;;;;5517977;26;20476;-70
2024/04/12 08:07:06;;;;;;;59.60;5.80;;;;;;;;;;5475706;26;20469;-70
2024/04/12 08:09:42;;;;;;;61.57;5.57;;;;;;;;;;5488520;26;20526;-69
2024/04/12 08:12:17;;;;;;;63.00;4.97;;;;;;;;;;5488234;26;20494;-69
2024/04/12 08:14:52;;;;;;;61.00;5.63;;;;;;;;;;5473730;26;20522;-70
2024/04/12 08:17:23;;;;;;;58.87;5.23;;;;;;;;;;5488789;26;20590;-70
2024/04/12 08:19:49;;;;;;;60.40;5.70;;;;;;;;;;5525178;26;20528;-70
2024/04/12 08:22:20;;;;;;;59.30;5.30;;;;;;;;;;5513265;26;20530;-70
2024/04/12 08:24:49;;;;;;;61.70;5.80;;;;;;;;;;5474203;26;20526;-70
2024/04/12 08:27:18;;;;;;;58.40;4.80;;;;;;;;;;5488392;26;20485;-70
2024/04/12 08:29:48;;;;;;;61.50;5.07;;;;;;;;;;5525455;26;20472;-69
2024/04/12 08:32:19;;;;;;;60.40;5.27;;;;;;;;;;5513104;26;20473;-71
2024/04/12 08:34:49;;;;;;;63.20;5.53;;;;;;;;;;5525148;26;20847;-70
2024/04/12 08:37:18;;;;;;;62.30;6.87;;;;;;;;;;5512678;26;20601;-70
2024/04/12 08:39:46;;;;;;;59.17;5.70;;;;;;;;;;5473407;26;20563;-71
2024/04/12 08:42:18;;;;;;;61.67;5.50;;;;;;;;;;5487868;26;20521;-70
2024/04/12 08:44:44;;;;;;;59.80;5.53;;;;;;;;;;5525056;26;20465;-70
2024/04/12 08:47:30;;;;;;;63.07;5.90;;;;;;;;;;5513959;26;20477;-71
2024/04/12 08:50:03;;;;;;;62.20;6.70;;;;;;;;;;5518197;26;20539;-71
2024/04/12 08:52:42;;;;;;;60.03;5.33;;;;;;;;;;5511287;26;20474;-70
2024/04/12 08:55:13;;;;;;;58.97;5.33;;;;;;;;;;5524936;26;20518;-71
2024/04/12 08:57:42;;;;;;;59.00;5.63;;;;;;;;;;5507069;26;20887;-71
2024/04/12 09:00:15;;;;;;;59.73;5.67;;;;;;;;;;5488317;26;20554;-70
2024/04/12 09:02:50;;;;;;;60.57;5.60;;;;;;;;;;5492901;26;20529;-71
2024/04/12 09:05:22;;;;;;;59.83;6.00;;;;;;;;;;5525102;26;20473;-71
2024/04/12 09:07:51;;;;;;;60.67;6.40;;;;;;;;;;5504812;26;20658;-71
2024/04/12 09:10:17;;;;;;;59.70;5.67;;;;;;;;;;5488008;26;20490;-71
2024/04/12 09:12:46;;;;;;;58.30;5.40;;;;;;;;;;5492625;26;20468;-69
2024/04/12 09:15:23;;;;;;;63.80;6.40;;;;;;;;;;5524418;26;20465;-71
2024/04/12 09:18:00;;;;;;;63.73;6.60;;;;;;;;;;5503562;26;20936;-71
2024/04/12 09:20:30;;;;;;;60.97;5.70;;;;;;;;;;5487642;26;20538;-71
2024/04/12 09:23:13;;;;;;;63.17;6.03;;;;;;;;;;5495582;26;20477;-71
2024/04/12 09:25:41;;;;;;;61.40;6.17;;;;;;;;;;5524129;26;20525;-71
2024/04/12 09:28:12;;;;;;;59.47;6.37;;;;;;;;;;5511086;26;20531;-71
2024/04/12 09:33:31;;;;;;;62.27;6.70;;;;;;;;;;5512918;26;20549;-70
2024/04/12 09:36:03;;;;;;;59.53;6.13;;;;;;;;;;5524325;26;20480;-71
2024/04/12 09:38:31;;;;;;;62.30;7.27;;;;;;;;;;5493065;26;20478;-70
2024/04/12 09:41:13;;;;;;;59.70;6.90;;;;;;;;;;5487338;26;20477;-71
2024/04/12 09:43:47;;;;;;;62.47;5.60;;;;;;;;;;5506285;26;20480;-71
2024/04/12 09:46:22;;;;;;;61.23;6.40;;;;;;;;;;5524135;26;20909;-70
2024/04/12 10:38:54;;;;;;;62.80;5.63;;;;;;;;;;5488427;26;20549;-70
2024/04/12 10:41:26;;;;;;;59.93;5.87;;;;;;;;;;5484862;26;20603;-70
2024/04/12 10:43:57;;;;;;;59.80;4.87;;;;;;;;;;5485802;26;20485;-70
2024/04/12 10:46:26;;;;;;;58.30;5.43;;;;;;;;;;5486341;26;21030;-70
2024/04/12 10:48:53;;;;;;;58.90;5.70;;;;;;;;;;5508224;26;20540;-71
2024/04/12 10:51:23;;;;;;;58.50;5.40;;;;;;;;;;5523091;26;20520;-71
2024/04/12 10:53:55;;;;;;;59.57;5.60;;;;;;;;;;5508189;26;20477;-70
2024/04/12 10:56:24;;;;;;;58.97;5.70;;;;;;;;;;5523151;26;20956;-70
2024/04/12 10:58:52;;;;;;;61.10;6.60;;;;;;;;;;5507870;26;20572;-70
2024/04/12 11:01:22;;;;;;;61.07;5.73;;;;;;;;;;5522512;26;20476;-70
2024/04/12 11:03:56;;;;;;;59.37;6.17;;;;;;;;;;5486964;26;20603;-70
2024/04/12 11:06:30;;;;;;;60.27;5.47;;;;;;;;;;5486301;26;20477;-70
2024/04/12 11:09:04;;;;;;;66.57;6.50;;;;;;;;;;5472425;26;20817;-70
2024/04/12 11:11:33;;;;;;;58.40;5.60;;;;;;;;;;5485030;26;20469;-69
2024/04/12 11:14:06;;;;;;;63.73;5.67;;;;;;;;;;5509498;26;20472;-70
2024/04/12 11:33:22;;;;;;;61.00;6.60;;;;;;;;;;5327331;26;20527;-70
2024/04/12 11:35:52;;;;;;;61.47;6.20;;;;;;;;;;5442885;26;20855;-70
2024/04/12 11:38:21;;;;;;;58.70;5.37;;;;;;;;;;5505511;26;20555;-70
2024/04/12 11:40:55;;;;;;;59.13;5.33;;;;;;;;;;5520004;26;20469;-70
2024/04/12 11:43:25;;;;;;;60.10;5.07;;;;;;;;;;5506204;26;21000;-68
2024/04/12 11:45:52;;;;;;;59.10;5.43;;;;;;;;;;5521306;26;20523;-70
2024/04/12 11:48:28;;;;;;;62.20;6.70;;;;;;;;;;5506267;26;20541;-70
2024/04/12 11:50:57;;;;;;;59.93;5.53;;;;;;;;;;5521781;26;20480;-68
2024/04/12 11:53:26;;;;;;;59.07;5.93;;;;;;;;;;5505554;26;21091;-70
2024/04/12 11:55:55;;;;;;;60.50;6.50;;;;;;;;;;5521194;26;20576;-70
2024/04/12 11:58:25;;;;;;;59.93;5.83;;;;;;;;;;5504862;26;20547;-71
2024/04/12 12:00:52;;;;;;;62.00;6.50;;;;;;;;;;5521527;26;20472;-71
2024/04/12 12:03:22;;;;;;;61.27;5.80;;;;;;;;;;5492802;26;20599;-71
2024/04/12 12:05:52;;;;;;;58.63;4.90;;;;;;;;;;5484280;26;21156;-71
2024/04/12 12:08:32;;;;;;;61.90;5.87;;;;;;;;;;5484507;26;21037;-71
2024/04/12 12:11:05;;;;;;;59.07;5.73;;;;;;;;;;5472320;26;21064;-71
2024/04/12 12:13:34;;;;;;;61.30;6.63;;;;;;;;;;5488325;26;20474;-70
2024/04/12 12:16:00;;;;;;;60.43;6.20;;;;;;;;;;5488461;26;20611;-71
2024/04/12 12:18:29;;;;;;;60.97;5.77;;;;;;;;;;5488262;26;20490;-71
2024/04/12 12:20:56;;;;;;;62.30;6.20;;;;;;;;;;5488572;26;20525;-70
2024/04/12 12:23:26;;;;;;;59.37;7.00;;;;;;;;;;5487470;26;20876;-68
2024/04/12 12:25:53;;;;;;;59.03;5.70;;;;;;;;;;5488323;26;20469;-68
2024/04/12 12:28:26;;;;;;;58.43;6.10;;;;;;;;;;5515788;26;20619;-69
2024/04/12 12:30:54;;;;;;;59.77;5.90;;;;;;;;;;5525091;26;20532;-69
2024/04/12 12:33:24;;;;;;;58.00;5.60;;;;;;;;;;5523691;26;20536;-69
2024/04/12 12:35:50;;;;;;;60.47;6.30;;;;;;;;;;5524850;26;20448;-68
2024/04/12 12:38:20;;;;;;;58.57;5.77;;;;;;;;;;5497513;26;20466;-69
2024/04/12 12:40:49;;;;;;;60.20;6.27;;;;;;;;;;5488198;26;20865;-69
2024/04/12 12:43:16;;;;;;;58.10;5.57;;;;;;;;;;5487082;26;20474;-69
2024/04/12 12:45:47;;;;;;;61.10;7.23;;;;;;;;;;5487822;26;20485;-70
2024/04/12 12:48:19;;;;;;;59.17;5.93;;;;;;;;;;5514337;26;20859;-70
2024/04/12 12:50:50;;;;;;;58.33;5.77;;;;;;;;;;5524927;26;20473;-70
2024/04/12 12:53:20;;;;;;;63.10;6.23;;;;;;;;;;5496312;26;20591;-69
2024/04/12 12:55:48;;;;;;;58.00;5.87;;;;;;;;;;5487696;26;20541;-70
2024/04/12 12:58:18;;;;;;;59.10;6.00;;;;;;;;;;5487526;26;21019;-70
2024/04/12 13:00:50;;;;;;;58.87;5.43;;;;;;;;;;5488409;26;20474;-69
2024/04/12 13:03:17;;;;;;;60.63;6.63;;;;;;;;;;5513427;26;20547;-70
2024/04/12 13:05:48;;;;;;;61.73;5.60;;;;;;;;;;5524348;26;20468;-70
2024/04/12 13:08:15;;;;;;;61.07;6.57;;;;;;;;;;5523632;26;20543;-69
2024/04/12 13:10:46;;;;;;;59.10;6.20;;;;;;;;;;5491627;26;20613;-70
2024/04/12 13:13:17;;;;;;;58.47;5.83;;;;;;;;;;5487157;26;20474;-70
2024/04/12 13:15:53;;;;;;;63.43;7.13;;;;;;;;;;5487336;26;20587;-70
2024/04/12 13:18:22;;;;;;;61.10;6.17;;;;;;;;;;5487177;26;20579;-70
2024/04/12 13:20:51;;;;;;;60.43;6.83;;;;;;;;;;5487385;26;20822;-70
2024/04/12 13:23:18;;;;;;;60.60;7.27;;;;;;;;;;5486535;26;20474;-69
2024/04/12 13:25:46;;;;;;;61.90;6.70;;;;;;;;;;5487221;26;21005;-70
2024/04/12 13:28:13;;;;;;;64.53;7.27;;;;;;;;;;5487646;26;20650;-70
2024/04/12 13:30:42;;;;;;;57.97;6.20;;;;;;;;;;5487090;26;20545;-70
2024/04/12 13:33:08;;;;;;;63.40;6.93;;;;;;;;;;5486362;26;20522;-69
2024/04/12 13:35:41;;;;;;;60.90;7.27;;;;;;;;;;5486948;26;20478;-69
2024/04/12 13:38:12;;;;;;;60.37;6.90;;;;;;;;;;5510708;26;20476;-69
2024/04/12 13:40:42;;;;;;;61.70;7.30;;;;;;;;;;5524138;26;20533;-69
2024/04/12 13:43:13;;;;;;;61.87;7.03;;;;;;;;;;5497707;26;20470;-70
2024/04/12 13:51:11;;;;;;;60.50;5.10;;;;;;;;;;5526773;26;20927;-70
2024/04/12 13:53:43;;;;;;;59.07;5.57;;;;;;;;;;5490637;26;20907;-70
2024/04/12 13:56:28;;;;;;;62.57;6.73;;;;;;;;;;5486766;26;20870;-70
2024/04/12 13:58:56;;;;;;;59.77;4.97;;;;;;;;;;5522175;26;20476;-71
2024/04/12 14:01:25;;;;;;;61.40;5.23;;;;;;;;;;5523296;26;20476;-70
2024/04/12 14:03:51;;;;;;;59.10;5.40;;;;;;;;;;5486666;26;21130;-70
2024/04/12 14:06:23;;;;;;;61.47;4.77;;;;;;;;;;5486804;26;20478;-70
2024/04/12 14:08:50;;;;;;;60.37;4.73;;;;;;;;;;5485984;26;21083;-70
2024/04/12 14:11:19;;;;;;;59.57;4.97;;;;;;;;;;5474565;26;20618;-70
2024/04/12 14:13:46;;;;;;;59.60;4.30;;;;;;;;;;5485719;26;20469;-71
2024/04/12 14:16:16;;;;;;;58.97;4.63;;;;;;;;;;5486272;26;21028;-70
2024/04/12 14:18:42;;;;;;;61.20;5.43;;;;;;;;;;5485706;26;20530;-71
2024/04/12 14:21:11;;;;;;;58.67;4.10;;;;;;;;;;5484670;26;20551;-70
2024/04/12 14:23:40;;;;;;;57.60;3.80;;;;;;;;;;5485774;26;20478;-70
2024/04/12 14:26:10;;;;;;;58.57;4.13;;;;;;;;;;5486542;26;20791;-70
2024/04/12 14:28:36;;;;;;;58.27;3.73;;;;;;;;;;5485496;26;21009;-70
2024/04/12 14:31:05;;;;;;;57.70;3.47;;;;;;;;;;5486934;26;20827;-70
2024/04/12 14:33:32;;;;;;;59.00;4.07;;;;;;;;;;5484300;26;20529;-70
2024/04/12 14:36:02;;;;;;;57.90;3.40;;;;;;;;;;5485963;26;20512;-70
2024/04/12 14:38:31;;;;;;;59.23;4.23;;;;;;;;;;5514249;26;20464;-70
2024/04/12 14:41:07;;;;;;;58.50;3.67;;;;;;;;;;5523038;26;21080;-70
2024/04/12 14:43:36;;;;;;;61.87;3.67;;;;;;;;;;5490928;26;21060;-70
2024/04/12 14:46:05;;;;;;;59.03;3.73;;;;;;;;;;5486375;26;20466;-70
2024/04/12 14:48:34;;;;;;;59.17;4.20;;;;;;;;;;5485868;26;20553;-69
2024/04/12 14:51:00;;;;;;;56.83;3.13;;;;;;;;;;5486146;26;20585;-71
2024/04/12 14:53:29;;;;;;;57.80;3.43;;;;;;;;;;5513376;26;21082;-71
2024/04/12 14:55:55;;;;;;;57.70;3.57;;;;;;;;;;5522588;26;20524;-70
2024/04/12 14:58:30;;;;;;;57.43;3.10;;;;;;;;;;5493391;26;21048;-71
2024/04/12 15:00:56;;;;;;;57.70;3.20;;;;;;;;;;5486171;26;20581;-71
2024/04/12 15:50:26;;;;;;;57.57;3.27;;;;;;;;;;5491267;26;20514;-71
2024/04/12 15:55:56;;;;;;;61.40;3.43;;;;;;;;;;5523502;26;20958;-71
2024/04/12 16:12:26;;;;;;;57.20;2.87;;;;;;;;;;5490232;26;20882;-71
2024/04/12 16:14:55;;;;;;;61.63;3.20;;;;;;;;;;5488159;26;20526;-71
2024/04/12 16:17:24;;;;;;;56.67;2.90;;;;;;;;;;5498002;26;20484;-71
2024/04/12 16:19:55;;;;;;;59.50;3.90;;;;;;;;;;5524755;26;20611;-71
2024/04/12 16:22:21;;;;;;;57.20;3.23;;;;;;;;;;5521001;26;20488;-72
2024/04/12 16:24:50;;;;;;;58.50;3.30;;;;;;;;;;5524117;26;20515;-71
2024/04/12 16:27:17;;;;;;;59.77;3.70;;;;;;;;;;5521761;26;20472;-71
2024/04/12 16:29:46;;;;;;;57.77;3.13;;;;;;;;;;5525072;26;20472;-71
2024/04/12 16:32:13;;;;;;;58.87;3.20;;;;;;;;;;5520801;26;20468;-71
2024/04/12 16:34:43;;;;;;;59.07;2.80;;;;;;;;;;5524918;26;20585;-70
2024/04/12 16:37:13;;;;;;;56.80;2.90;;;;;;;;;;5521273;26;20777;-72
2024/04/12 16:39:42;;;;;;;58.13;2.77;;;;;;;;;;5524842;26;20648;-71
2024/04/12 16:42:08;;;;;;;57.00;3.10;;;;;;;;;;5514826;26;20583;-71
2024/04/12 16:44:37;;;;;;;59.23;3.20;;;;;;;;;;5487843;26;20585;-71
2024/04/12 16:47:03;;;;;;;60.90;3.23;;;;;;;;;;5492767;26;20611;-71
2024/04/12 16:49:32;;;;;;;57.43;3.00;;;;;;;;;;5525025;26;20559;-71
2024/04/12 16:51:58;;;;;;;56.73;3.10;;;;;;;;;;5520210;26;20542;-70
2024/04/12 16:54:29;;;;;;;57.10;3.17;;;;;;;;;;5524588;26;20476;-71
2024/04/12 16:56:56;;;;;;;57.77;3.17;;;;;;;;;;5520169;26;21153;-71
2024/04/12 16:59:24;;;;;;;61.50;3.27;;;;;;;;;;5524695;26;20479;-71
2024/04/12 17:01:51;;;;;;;59.03;2.93;;;;;;;;;;5519741;26;20578;-71
2024/04/12 17:04:20;;;;;;;56.50;3.00;;;;;;;;;;5524149;26;20565;-71
2024/04/12 17:06:46;;;;;;;56.87;2.60;;;;;;;;;;5520610;26;20479;-71